createdAt,value
2018-03-25T00:01:45.774Z,18.90
2018-03-25T00:04:13.180Z,20.53
2018-03-25T00:06:40.605Z,22.27
2018-03-25T00:09:08.307Z,18.90
2018-03-25T00:11:35.707Z,17.00
2018-03-25T00:14:03.306Z,18.83
2018-03-25T00:16:30.717Z,20.30
2018-03-25T00:18:58.114Z,20.93
2018-03-25T00:21:25.525Z,19.17
2018-03-25T00:23:52.938Z,18.37
2018-03-25T00:26:20.342Z,19.43
2018-03-25T00:28:47.746Z,19.50
2018-03-25T00:31:15.165Z,18.20
2018-03-25T00:33:42.584Z,19.23
2018-03-25T00:36:09.989Z,17.73
2018-03-25T00:38:37.410Z,19.33
2018-03-25T00:41:04.799Z,16.77
2018-03-25T00:43:32.207Z,18.53
2018-03-25T00:45:59.619Z,19.43
2018-03-25T00:48:27.089Z,23.30
2018-03-25T00:50:54.446Z,23.10
2018-03-25T00:53:21.865Z,24.60
2018-03-25T00:55:49.272Z,23.07
2018-03-25T00:58:16.678Z,20.07
2018-03-25T01:00:44.215Z,22.40
2018-03-25T01:03:11.609Z,20.13
2018-03-25T01:05:39.023Z,18.27
2018-03-25T01:08:06.433Z,23.53
2018-03-25T01:10:33.834Z,20.00
2018-03-25T01:13:01.265Z,24.40
2018-03-25T01:18:29.438Z,19.10
2018-03-25T01:20:56.847Z,17.10
2018-03-25T01:23:24.262Z,19.03
2018-03-25T01:25:51.666Z,18.27
2018-03-25T01:28:19.247Z,19.83
2018-03-25T01:30:46.658Z,24.53
2018-03-25T01:33:14.058Z,24.27
2018-03-25T01:35:41.761Z,24.70
2018-03-25T01:38:09.166Z,23.77
2018-03-25T01:40:36.561Z,20.93
2018-03-25T01:43:04.083Z,18.33
2018-03-25T01:45:31.490Z,20.47
2018-03-25T01:47:58.897Z,25.63
2018-03-25T01:50:26.314Z,25.00
2018-03-25T01:52:53.732Z,26.43
2018-03-25T01:55:21.161Z,26.10
2018-03-25T01:57:48.570Z,23.90
2018-03-25T02:00:15.986Z,20.17
2018-03-25T02:02:43.395Z,24.00
2018-03-25T02:05:10.801Z,19.40
2018-03-25T02:07:38.222Z,23.30
2018-03-25T02:10:05.623Z,19.67
2018-03-25T02:12:33.034Z,18.60
2018-03-25T02:15:00.462Z,17.93
2018-03-25T02:17:27.865Z,18.03
2018-03-25T02:19:55.290Z,16.83
2018-03-25T02:22:22.694Z,18.13
2018-03-25T02:24:50.118Z,18.67
2018-03-25T02:27:17.522Z,18.10
2018-03-25T02:29:44.936Z,17.43
2018-03-25T02:32:12.353Z,15.47
2018-03-25T02:34:39.906Z,17.43
2018-03-25T02:37:07.432Z,18.73
2018-03-25T02:39:34.852Z,17.30
2018-03-25T02:42:02.290Z,23.57
2018-03-25T02:44:29.695Z,24.53
2018-03-25T02:46:57.104Z,23.13
2018-03-25T02:49:24.509Z,22.40
2018-03-25T02:51:51.927Z,23.37
2018-03-25T02:54:19.329Z,18.93
2018-03-25T02:56:46.760Z,26.43
2018-03-25T02:59:14.286Z,24.07
2018-03-25T03:01:41.699Z,25.83
2018-03-25T03:04:09.101Z,24.70
2018-03-25T03:06:36.522Z,28.37
2018-03-25T03:09:03.919Z,25.07
2018-03-25T03:11:31.325Z,25.43
2018-03-25T03:13:58.746Z,27.50
2018-03-25T03:16:26.153Z,26.03
2018-03-25T03:18:53.565Z,26.27
2018-03-25T03:21:20.975Z,26.93
2018-03-25T03:23:48.377Z,25.87
2018-03-25T03:26:15.796Z,25.70
2018-03-25T03:28:43.202Z,21.97
2018-03-25T03:31:10.597Z,24.90
2018-03-25T03:33:38.009Z,28.63
2018-03-25T03:36:05.421Z,25.53
2018-03-25T03:38:32.833Z,25.03
2018-03-25T03:41:00.233Z,24.73
2018-03-25T03:43:27.652Z,24.53
2018-03-25T03:45:55.067Z,24.90
2018-03-25T03:48:22.485Z,27.47
2018-03-25T03:50:50.167Z,27.30
2018-03-25T03:53:17.628Z,27.17
2018-03-25T03:55:45.034Z,28.50
2018-03-25T03:58:12.459Z,25.83
2018-03-25T04:00:39.857Z,23.77
2018-03-25T04:03:07.277Z,23.23
2018-03-25T04:05:34.673Z,23.63
2018-03-25T04:08:02.104Z,22.37
2018-03-25T04:10:29.507Z,20.97
2018-03-25T04:12:56.909Z,20.43
2018-03-25T04:15:24.321Z,24.43
2018-03-25T04:17:51.721Z,18.77
2018-03-25T04:20:19.145Z,18.60
2018-03-25T04:22:46.548Z,27.47
2018-03-25T04:25:13.953Z,29.07
2018-03-25T04:27:41.382Z,26.83
2018-03-25T04:30:08.785Z,23.93
2018-03-25T04:32:36.214Z,23.70
2018-03-25T04:35:03.619Z,21.80
2018-03-25T04:37:31.039Z,23.30
2018-03-25T04:39:58.465Z,22.07
2018-03-25T04:42:25.888Z,19.33
2018-03-25T04:44:53.317Z,19.97
2018-03-25T04:47:20.832Z,22.43
2018-03-25T04:49:48.219Z,19.40
2018-03-25T04:52:15.617Z,21.67
2018-03-25T04:54:43.081Z,21.37
2018-03-25T04:57:10.501Z,21.83
2018-03-25T04:59:37.915Z,18.83
2018-03-25T05:02:05.362Z,21.27
2018-03-25T05:04:32.769Z,19.77
2018-03-25T05:07:00.394Z,21.37
2018-03-25T05:09:27.802Z,21.00
2018-03-25T05:11:55.506Z,21.10
2018-03-25T05:14:23.033Z,22.10
2018-03-25T05:16:50.490Z,18.80
2018-03-25T05:19:18.019Z,21.30
2018-03-25T05:21:45.474Z,22.40
2018-03-25T05:24:12.873Z,24.27
2018-03-25T05:26:40.282Z,26.73
2018-03-25T05:29:07.706Z,24.53
2018-03-25T05:31:35.122Z,24.60
2018-03-25T05:34:02.526Z,23.27
2018-03-25T05:36:30.037Z,23.17
2018-03-25T05:38:57.555Z,20.67
2018-03-25T05:41:24.910Z,20.90
2018-03-25T05:43:52.455Z,21.47
2018-03-25T05:46:19.894Z,21.13
2018-03-25T05:48:47.320Z,23.07
2018-03-25T05:51:14.738Z,21.90
2018-03-25T05:53:42.185Z,20.00
2018-03-25T05:56:09.601Z,22.97
2018-03-25T05:58:37.001Z,21.40
2018-03-25T06:01:04.408Z,22.17
2018-03-25T06:03:32.090Z,22.97
2018-03-25T06:05:59.482Z,23.87
2018-03-25T06:08:26.885Z,22.70
2018-03-25T06:10:54.301Z,22.63
2018-03-25T06:13:21.722Z,21.27
2018-03-25T06:15:49.140Z,23.17
2018-03-25T06:18:16.545Z,22.80
2018-03-25T06:20:44.002Z,22.63
2018-03-25T06:23:11.689Z,22.33
2018-03-25T06:25:39.049Z,24.53
2018-03-25T06:28:06.442Z,21.67
2018-03-25T06:30:33.956Z,26.23
2018-03-25T06:33:01.372Z,24.13
2018-03-25T06:35:28.757Z,25.37
2018-03-25T06:37:56.377Z,25.40
2018-03-25T06:40:23.777Z,28.63
2018-03-25T06:42:51.181Z,25.70
2018-03-25T06:45:18.597Z,22.93
2018-03-25T06:47:45.997Z,23.77
2018-03-25T06:50:13.398Z,23.10
2018-03-25T06:52:40.815Z,27.03
2018-03-25T06:55:08.225Z,25.10
2018-03-25T06:57:35.631Z,23.13
2018-03-25T07:00:03.149Z,25.07
2018-03-25T07:02:30.550Z,23.93
2018-03-25T07:04:57.961Z,23.37
2018-03-25T07:07:25.395Z,25.73
2018-03-25T07:09:52.811Z,24.30
2018-03-25T07:12:20.221Z,26.53
2018-03-25T07:14:47.642Z,26.87
2018-03-25T07:17:15.058Z,26.30
2018-03-25T07:19:42.456Z,28.57
2018-03-25T07:22:09.877Z,27.97
2018-03-25T07:24:37.281Z,25.77
2018-03-25T07:27:04.704Z,27.93
2018-03-25T07:29:32.134Z,30.73
2018-03-25T07:31:59.554Z,31.37
2018-03-25T07:34:26.957Z,31.90
2018-03-25T07:36:54.353Z,30.17
2018-03-25T07:39:21.766Z,29.63
2018-03-25T07:41:49.178Z,28.67
2018-03-25T07:44:16.937Z,31.03
2018-03-25T07:46:44.453Z,28.50
2018-03-25T07:49:11.858Z,29.30
2018-03-25T07:51:39.257Z,28.77
2018-03-25T07:54:06.673Z,34.20
2018-03-25T07:56:34.073Z,29.63
2018-03-25T07:59:01.494Z,32.43
2018-03-25T08:01:28.897Z,34.30
2018-03-25T08:03:56.491Z,38.63
2018-03-25T08:06:23.882Z,38.70
2018-03-25T08:08:51.284Z,39.40
2018-03-25T08:11:18.702Z,36.77
2018-03-25T08:13:46.129Z,38.63
2018-03-25T08:16:13.627Z,41.07
2018-03-25T08:18:40.962Z,37.57
2018-03-25T08:21:08.632Z,42.03
2018-03-25T08:23:36.029Z,35.67
2018-03-25T08:26:03.442Z,37.33
2018-03-25T08:28:31.066Z,40.30
2018-03-25T08:30:58.464Z,43.13
2018-03-25T08:33:25.877Z,39.27
2018-03-25T08:35:53.290Z,37.93
2018-03-25T08:38:20.694Z,40.40
2018-03-25T08:40:48.128Z,40.17
2018-03-25T08:43:15.529Z,39.70
2018-03-25T08:45:42.954Z,32.93
2018-03-25T08:48:10.374Z,33.10
2018-03-25T08:50:37.770Z,37.27
2018-03-25T08:53:05.474Z,41.27
2018-03-25T08:55:32.877Z,42.10
2018-03-25T08:58:00.282Z,37.57
2018-03-25T09:00:27.700Z,41.23
2018-03-25T09:02:55.105Z,41.13
2018-03-25T09:05:22.818Z,40.10
2018-03-25T09:07:50.221Z,40.23
2018-03-25T09:10:17.645Z,41.60
2018-03-25T09:12:45.442Z,38.77
2018-03-25T09:15:12.853Z,39.00
2018-03-25T09:17:40.272Z,37.77
2018-03-25T09:20:07.698Z,38.17
2018-03-25T09:22:35.097Z,35.30
2018-03-25T09:25:02.730Z,37.80
2018-03-25T09:27:30.139Z,38.43
2018-03-25T09:29:57.541Z,35.77
2018-03-25T09:32:24.966Z,37.80
2018-03-25T09:34:52.386Z,37.90
2018-03-25T09:37:19.825Z,34.73
2018-03-25T09:39:47.222Z,37.37
2018-03-25T09:42:14.673Z,34.60
2018-03-25T09:44:42.068Z,35.63
2018-03-25T09:47:09.487Z,39.33
2018-03-25T09:49:36.913Z,39.70
2018-03-25T09:52:04.323Z,34.83
2018-03-25T09:54:31.769Z,38.17
2018-03-25T09:56:59.193Z,38.40
2018-03-25T09:59:26.598Z,36.23
2018-03-25T10:05:02.987Z,35.73
2018-03-25T10:07:30.819Z,31.77
2018-03-25T10:09:58.242Z,39.10
2018-03-25T10:12:25.736Z,33.10
2018-03-25T10:14:53.198Z,36.70
2018-03-25T10:17:20.905Z,32.93
2018-03-25T10:19:48.523Z,33.90
2018-03-25T10:22:15.957Z,37.87
2018-03-25T10:24:43.788Z,38.07
2018-03-25T10:27:11.223Z,35.03
2018-03-25T10:29:38.630Z,36.20
2018-03-25T10:32:06.057Z,41.57
2018-03-25T10:34:33.474Z,38.53
2018-03-25T10:37:01.009Z,39.83
2018-03-25T10:39:28.417Z,39.27
2018-03-25T10:41:55.850Z,38.40
2018-03-25T10:44:23.351Z,37.77
2018-03-25T10:46:50.878Z,39.07
2018-03-25T10:49:18.343Z,33.77
2018-03-25T10:51:45.763Z,33.73
2018-03-25T10:54:13.214Z,39.00
2018-03-25T10:56:40.720Z,39.77
2018-03-25T10:59:08.149Z,36.60
2018-03-25T11:01:35.574Z,38.40
2018-03-25T11:04:02.982Z,37.00
2018-03-25T11:06:30.417Z,33.23
2018-03-25T11:08:57.826Z,34.20
2018-03-25T11:11:25.266Z,36.67
2018-03-25T11:13:52.733Z,39.10
2018-03-25T11:16:20.206Z,35.80
2018-03-25T11:18:47.778Z,35.90
2018-03-25T11:21:15.186Z,37.87
2018-03-25T11:23:42.662Z,35.63
2018-03-25T11:26:10.102Z,37.50
2018-03-25T11:28:37.533Z,36.73
2018-03-25T11:31:04.946Z,39.73
2018-03-25T11:33:32.362Z,37.30
2018-03-25T11:35:59.889Z,35.60
2018-03-25T11:38:27.603Z,32.10
2018-03-25T11:40:55.026Z,33.87
2018-03-25T11:43:22.787Z,32.87
2018-03-25T11:45:50.216Z,29.90
2018-03-25T11:48:17.653Z,33.47
2018-03-25T11:50:45.303Z,34.77
2018-03-25T11:53:12.733Z,35.13
2018-03-25T11:55:40.117Z,32.83
2018-03-25T11:58:07.542Z,32.40
2018-03-25T12:00:34.950Z,35.87
2018-03-25T12:03:02.637Z,31.03
2018-03-25T12:05:30.035Z,33.33
2018-03-25T12:07:57.449Z,31.60
2018-03-25T12:10:24.882Z,28.90
2018-03-25T12:12:52.289Z,28.17
2018-03-25T12:15:19.782Z,26.77
2018-03-25T12:17:48.226Z,25.37
2018-03-25T12:20:15.808Z,35.20
2018-03-25T12:22:43.225Z,31.57
2018-03-25T12:25:10.638Z,30.30
2018-03-25T12:27:38.076Z,31.17
2018-03-25T12:30:05.483Z,30.97
2018-03-25T12:32:32.909Z,30.13
2018-03-25T12:35:00.326Z,29.17
2018-03-25T12:37:28.137Z,29.73
2018-03-25T12:39:55.554Z,27.63
2018-03-25T12:42:22.970Z,27.13
2018-03-25T12:44:50.395Z,27.07
2018-03-25T12:47:17.819Z,30.00
2018-03-25T12:49:45.245Z,31.53
2018-03-25T12:52:12.662Z,29.57
2018-03-25T12:54:40.383Z,28.20
2018-03-25T12:57:07.797Z,31.87
2018-03-25T12:59:35.212Z,24.43
2018-03-25T13:02:02.637Z,27.77
2018-03-25T13:04:30.041Z,26.73
2018-03-25T13:06:57.482Z,25.40
2018-03-25T13:09:24.910Z,27.90
2018-03-25T13:11:52.332Z,25.73
2018-03-25T13:14:19.757Z,25.60
2018-03-25T13:16:47.166Z,26.40
2018-03-25T13:19:14.585Z,24.77
2018-03-25T13:21:42.281Z,26.70
2018-03-25T13:24:09.685Z,25.80
2018-03-25T13:26:37.102Z,25.87
2018-03-25T13:29:04.534Z,25.47
2018-03-25T13:31:31.964Z,25.93
2018-03-25T13:33:59.505Z,24.70
2018-03-25T13:36:26.907Z,25.37
2018-03-25T13:38:54.671Z,26.43
2018-03-25T13:41:22.087Z,28.57
2018-03-25T13:43:49.501Z,25.83
2018-03-25T13:46:17.291Z,23.13
2018-03-25T13:48:44.696Z,25.33
2018-03-25T13:51:12.125Z,25.70
2018-03-25T13:53:39.560Z,26.37
2018-03-25T13:56:06.974Z,23.47
2018-03-25T13:58:34.397Z,24.93
2018-03-25T14:01:01.809Z,24.17
2018-03-25T14:03:29.210Z,26.50
2018-03-25T14:05:56.662Z,26.50
2018-03-25T14:08:24.108Z,25.20
2018-03-25T14:10:51.540Z,24.90
2018-03-25T14:13:18.996Z,25.00
2018-03-25T14:15:46.426Z,26.90
2018-03-25T14:18:13.849Z,25.73
2018-03-25T14:20:41.477Z,25.40
2018-03-25T14:23:08.955Z,27.47
2018-03-25T14:25:36.338Z,24.90
2018-03-25T14:28:03.774Z,27.67
2018-03-25T14:30:31.330Z,27.87
2018-03-25T14:32:58.754Z,29.67
2018-03-25T14:35:26.170Z,28.60
2018-03-25T14:37:53.738Z,30.37
2018-03-25T14:40:21.154Z,30.53
2018-03-25T14:42:48.566Z,30.77
2018-03-25T14:45:15.986Z,33.27
2018-03-25T14:47:43.558Z,29.70
2018-03-25T14:50:10.968Z,28.47
2018-03-25T14:52:38.401Z,30.33
2018-03-25T14:55:05.821Z,33.97
2018-03-25T14:57:34.214Z,33.00
2018-03-25T15:00:01.654Z,32.23
2018-03-25T15:02:29.058Z,31.30
2018-03-25T15:04:56.803Z,28.73
2018-03-25T15:07:24.238Z,30.90
2018-03-25T15:09:51.710Z,30.13
2018-03-25T15:12:19.210Z,30.97
2018-03-25T15:14:46.609Z,28.80
2018-03-25T15:17:14.053Z,29.33
2018-03-25T15:19:41.477Z,28.60
2018-03-25T15:22:08.885Z,28.30
2018-03-25T15:24:36.307Z,29.13
2018-03-25T15:27:03.726Z,29.40
2018-03-25T15:29:31.334Z,28.77
2018-03-25T15:31:58.751Z,26.73
2018-03-25T15:34:26.223Z,26.03
2018-03-25T15:36:53.652Z,27.43
2018-03-25T15:39:21.073Z,26.77
2018-03-25T15:41:48.498Z,25.57
2018-03-25T15:44:15.921Z,28.93
2018-03-25T15:46:43.346Z,24.63
2018-03-25T15:49:10.790Z,26.83
2018-03-25T15:51:38.236Z,29.87
2018-03-25T15:54:05.758Z,26.67
2018-03-25T15:56:33.166Z,27.80
2018-03-25T15:59:00.587Z,27.67
2018-03-25T16:01:28.006Z,27.70
2018-03-25T16:03:55.493Z,26.73
2018-03-25T16:06:22.921Z,26.43
2018-03-25T16:08:50.707Z,27.27
2018-03-25T16:11:18.187Z,25.07
2018-03-25T16:13:45.607Z,27.40
2018-03-25T16:16:13.035Z,25.67
2018-03-25T16:18:40.472Z,27.03
2018-03-25T16:21:07.884Z,27.87
2018-03-25T16:23:35.317Z,27.57
2018-03-25T16:26:02.742Z,27.90
2018-03-25T16:28:30.177Z,26.33
2018-03-25T16:30:57.607Z,28.07
2018-03-25T16:33:25.024Z,28.73
2018-03-25T16:35:52.737Z,27.50
2018-03-25T16:38:20.155Z,26.13
2018-03-25T16:40:47.577Z,25.13
2018-03-25T16:43:15.019Z,26.23
2018-03-25T16:45:42.435Z,27.30
2018-03-25T16:48:09.859Z,27.73
2018-03-25T16:50:37.320Z,27.53
2018-03-25T16:53:04.747Z,26.33
2018-03-25T16:55:32.154Z,25.63
2018-03-25T16:57:59.600Z,29.13
2018-03-25T17:00:27.151Z,27.20
2018-03-25T17:02:54.603Z,24.93
2018-03-25T17:05:22.029Z,25.10
2018-03-25T17:07:49.569Z,25.57
2018-03-25T17:10:17.178Z,25.43
2018-03-25T17:12:44.658Z,27.57
2018-03-25T17:15:12.090Z,26.60
2018-03-25T17:17:39.515Z,27.07
2018-03-25T17:20:06.938Z,24.20
2018-03-25T17:22:34.371Z,24.47
2018-03-25T17:25:02.020Z,24.10
2018-03-25T17:27:29.439Z,22.53
2018-03-25T17:29:56.879Z,22.17
2018-03-25T17:32:24.308Z,23.53
2018-03-25T17:34:51.836Z,21.33
2018-03-25T17:37:19.240Z,21.67
2018-03-25T17:39:46.655Z,23.70
2018-03-25T17:42:14.188Z,23.13
2018-03-25T17:44:41.640Z,21.87
2018-03-25T17:47:09.042Z,20.63
2018-03-25T17:49:36.476Z,21.77
2018-03-25T17:52:03.885Z,23.90
2018-03-25T17:54:31.318Z,22.57
2018-03-25T17:56:58.747Z,24.77
2018-03-25T17:59:26.493Z,26.47
2018-03-25T18:01:53.924Z,23.37
2018-03-25T18:04:21.458Z,27.87
2018-03-25T18:06:48.963Z,25.30
2018-03-25T18:09:16.398Z,27.23
2018-03-25T18:11:43.842Z,27.23
2018-03-25T18:14:11.282Z,26.80
2018-03-25T18:16:38.696Z,23.97
2018-03-25T18:19:06.113Z,24.97
2018-03-25T18:21:33.522Z,25.73
2018-03-25T18:24:00.922Z,24.97
2018-03-25T18:26:28.343Z,26.73
2018-03-25T18:28:55.754Z,26.43
2018-03-25T18:31:23.177Z,24.47
2018-03-25T18:33:50.590Z,24.60
2018-03-25T18:36:18.000Z,28.30
2018-03-25T18:38:45.417Z,24.20
2018-03-25T18:41:12.871Z,22.97
2018-03-25T18:43:40.274Z,23.63
2018-03-25T18:46:07.686Z,25.33
2018-03-25T18:48:35.093Z,25.73
2018-03-25T18:51:02.523Z,24.83
2018-03-25T18:53:29.930Z,24.40
2018-03-25T18:55:57.329Z,24.47
2018-03-25T18:58:24.757Z,24.83
2018-03-25T19:00:52.262Z,24.33
2018-03-25T19:03:19.682Z,22.67
2018-03-25T19:05:47.118Z,24.07
2018-03-25T19:08:14.516Z,26.20
2018-03-25T19:10:41.942Z,22.37
2018-03-25T19:13:09.346Z,23.30
2018-03-25T19:15:36.774Z,25.63
2018-03-25T19:18:04.182Z,25.60
2018-03-25T19:20:31.598Z,25.37
2018-03-25T19:22:59.021Z,31.23
2018-03-25T19:25:26.470Z,32.97
2018-03-25T19:27:53.930Z,37.93
2018-03-25T19:30:21.344Z,35.90
2018-03-25T19:32:48.915Z,31.43
2018-03-25T19:35:16.314Z,33.27
2018-03-25T19:37:43.812Z,34.23
2018-03-25T19:40:11.234Z,38.07
2018-03-25T19:42:38.661Z,35.97
2018-03-25T19:45:06.082Z,38.20
2018-03-25T19:47:33.489Z,38.93
2018-03-25T19:50:00.918Z,38.50
2018-03-25T19:52:28.339Z,35.47
2018-03-25T19:54:55.825Z,34.73
2018-03-25T19:57:23.383Z,32.80
2018-03-25T19:59:50.861Z,36.30
2018-03-25T20:02:18.730Z,33.87
2018-03-25T20:04:46.170Z,33.90
2018-03-25T20:07:13.614Z,30.90
2018-03-25T20:09:41.068Z,30.80
2018-03-25T20:12:08.498Z,34.30
2018-03-25T20:14:35.897Z,43.50
2018-03-25T20:17:03.327Z,38.90
2018-03-25T20:19:30.731Z,37.50
2018-03-25T20:21:58.171Z,38.43
2018-03-25T20:24:25.657Z,41.20
2018-03-25T20:26:53.118Z,41.40
2018-03-25T20:29:20.610Z,40.83
2018-03-25T20:31:48.206Z,37.47
2018-03-25T20:34:15.686Z,40.77
2018-03-25T20:36:43.112Z,35.50
2018-03-25T20:39:10.530Z,32.83
2018-03-25T20:41:37.941Z,31.90
2018-03-25T20:44:05.345Z,32.20
2018-03-25T20:46:32.772Z,32.93
2018-03-25T20:49:00.262Z,34.50
2018-03-25T20:51:27.667Z,39.00
2018-03-25T20:53:55.103Z,34.33
2018-03-25T20:56:22.536Z,33.73
2018-03-25T20:58:50.017Z,31.47
2018-03-25T21:01:17.560Z,30.33
2018-03-25T21:03:44.970Z,32.73
2018-03-25T21:06:12.389Z,30.83
2018-03-25T21:08:39.797Z,29.73
2018-03-25T21:11:07.205Z,29.97
2018-03-25T21:13:34.946Z,30.30
2018-03-25T21:16:02.351Z,30.33
2018-03-25T21:18:29.816Z,31.90
2018-03-25T21:20:57.268Z,32.33
2018-03-25T21:23:24.776Z,35.27
2018-03-25T21:25:52.258Z,33.23
2018-03-25T21:28:19.742Z,36.03
2018-03-25T21:30:47.694Z,32.83
2018-03-25T21:33:15.195Z,34.17
2018-03-25T21:35:42.684Z,33.07
2018-03-25T21:38:10.078Z,31.80
2018-03-25T21:40:37.520Z,35.10
2018-03-25T21:43:05.166Z,37.70
2018-03-25T21:45:32.680Z,35.97
2018-03-25T21:48:00.093Z,36.77
2018-03-25T21:50:27.518Z,38.77
2018-03-25T21:52:54.981Z,35.20
2018-03-25T21:55:22.438Z,38.60
2018-03-25T21:57:49.919Z,31.17
2018-03-25T22:00:17.388Z,35.43
2018-03-25T22:02:44.810Z,37.80
2018-03-25T22:05:12.245Z,33.10
2018-03-25T22:07:39.702Z,30.03
2018-03-25T22:10:07.142Z,31.93
2018-03-25T22:12:34.857Z,28.13
2018-03-25T22:15:02.257Z,29.37
2018-03-25T22:17:29.689Z,30.43
2018-03-25T22:19:57.197Z,30.87
2018-03-25T22:22:24.662Z,29.60
2018-03-25T22:24:52.112Z,28.97
2018-03-25T22:27:19.554Z,26.37
2018-03-25T22:29:47.504Z,26.60
2018-03-25T22:32:14.994Z,28.10
2018-03-25T22:34:42.402Z,26.90
2018-03-25T22:37:09.829Z,27.27
2018-03-25T22:39:37.238Z,26.63
2018-03-25T22:42:04.683Z,29.83
2018-03-25T22:44:32.091Z,27.67
2018-03-25T22:46:59.510Z,25.03
2018-03-25T22:49:26.917Z,25.37
2018-03-25T22:51:54.329Z,26.77
2018-03-25T22:54:21.762Z,28.47
2018-03-25T22:56:49.318Z,31.07
2018-03-25T22:59:16.814Z,25.73
2018-03-25T23:01:44.250Z,26.73
2018-03-25T23:04:11.776Z,31.33
2018-03-25T23:06:39.183Z,32.23
2018-03-25T23:09:06.602Z,33.80
2018-03-25T23:11:34.021Z,32.83
2018-03-25T23:14:01.430Z,29.87
2018-03-25T23:16:28.964Z,30.43
2018-03-25T23:18:56.372Z,33.60
2018-03-25T23:21:23.789Z,32.27
2018-03-25T23:23:51.247Z,34.33
2018-03-25T23:26:18.921Z,33.13
2018-03-25T23:28:46.371Z,31.93
2018-03-25T23:31:13.988Z,31.43
2018-03-25T23:33:41.431Z,29.80
2018-03-25T23:36:08.863Z,28.43
2018-03-25T23:38:36.300Z,30.23
2018-03-25T23:41:03.717Z,31.00
2018-03-25T23:43:31.126Z,30.87
2018-03-25T23:45:58.556Z,31.47
2018-03-25T23:48:25.994Z,35.27
2018-03-25T23:50:53.427Z,30.57
2018-03-25T23:53:20.941Z,32.13
2018-03-25T23:55:48.362Z,30.00
2018-03-25T23:58:15.773Z,31.97
